Fort Lauderdale, FL (33335)

10:34 AM EST on January 27, 2015 (GMT -0500)
North Andrews Gardens | Change Station
CLOSE
Current Station
Personal Weather Station
Location: Fort Lauderdale, FL
Elevation: 9 ft
Nearby Weather Stations

Elev 9 ft 26.18 °N, 80.14 °W | Updated 9 seconds ago

Clear
Clear
60.6 °F
Feels Like 60.6 °F
N
5.2
Wind Variable Wind from West
Gusts 9.8 mph

Today
High -- | Low -- °F
--% Chance of Precip.
Yesterday
High -- | Low -- °F
Precip. -- in
7:07 AM 5:59 PM
First Quarter, 55% visible
Pressure 30.08 in
Visibility 10.0 miles
Clouds Clear
Dew Point 40 °F
Humidity 46%
Rainfall 0.00 in
Snow Depth Not available.
UV 4 out of 12
Pollen 7.20 out of 12
Air Quality Not available.
Flu Activity Not available.
METAR KFXE 271453Z 32010KT 10SM CLR 15/03 A3007 RMK AO2 SLP184 T01500028 51017

More Conditions Fewer Conditions

Pressure 30.08 in
Visibility 10.0 miles
Clouds Clear
Dew Point 40 °F
Humidity 46%
Rainfall 0.00 in
Snow Depth Not available.
UV 4 out of 12
Pollen 7.20 out of 12
Air Quality Not available.
Flu Activity Not available.
METAR KFXE 271453Z 32010KT 10SM CLR 15/03 A3007 RMK AO2 SLP184 T01500028 51017

More Conditions Fewer Conditions

10-Day Weather Forecast

Almanac

Astronomy

Jan. 27, 2015 Rise Set
Actual Time
Civil Twilight
Nautical Twilight
Astronomical Twilight
Moon
Length of Visible Light
Length of Day
Tomorrow will be .
, % of the Moon is Illuminated

Today's Extremes

State Highs State Lows

Community

WunderPhotos

Upload Photos

1,790,689 photos uploaded!

WunderBlogs® & News

Nearby

Air Quality

  Air Quality AQ Index Pollutant
Not available.

Snow Depth

Station Depth Elevation

Earthquake Activity

City Distance Mag. Time & Date
Minimum magnitude displayed is 2.5.

Coastal Water Temperatures

Place Temperature

Nearby Weather Stations